Time;durP1;ratioP1;P1;durP2;ratioP2;P2;SDS_P1;SDS_P2;PMS_P1;PMS_P2;Temp;Humidity;BMP_temperature;BMP_pressure;BME280_temperature;BME280_humidity;BME280_pressure;Samples;Min_cycle;Max_cycle;Signal;HPM_P1;HPM_P2
2023/06/05 00:01:20;;;;;;;6.80;6.00;;;;;;;;;;5100287;28;20204;-72
2023/06/05 00:03:47;;;;;;;6.00;5.10;;;;;;;;;;5095114;28;20693;-72
2023/06/05 00:06:14;;;;;;;6.30;5.03;;;;;;;;;;5095672;28;20257;-73
2023/06/05 00:08:42;;;;;;;7.20;6.00;;;;;;;;;;5101933;28;20209;-73
2023/06/05 00:11:09;;;;;;;6.30;5.70;;;;;;;;;;5095812;28;20255;-73
2023/06/05 00:13:36;;;;;;;6.50;5.80;;;;;;;;;;5081151;28;20253;-73
2023/06/05 00:16:04;;;;;;;6.73;5.93;;;;;;;;;;5095388;28;20205;-73
2023/06/05 00:18:31;;;;;;;8.10;6.27;;;;;;;;;;5104328;28;20279;-74
2023/06/05 00:20:59;;;;;;;8.27;5.90;;;;;;;;;;5104649;28;20282;-72
2023/06/05 00:23:26;;;;;;;7.63;5.57;;;;;;;;;;5098543;28;20646;-73
2023/06/05 00:25:53;;;;;;;8.27;5.57;;;;;;;;;;5077552;28;20118;-74
2023/06/05 00:28:21;;;;;;;6.67;5.07;;;;;;;;;;5089026;28;20873;-73
2023/06/05 00:30:48;;;;;;;6.17;5.30;;;;;;;;;;5091855;28;20224;-76
2023/06/05 00:33:15;;;;;;;5.77;4.90;;;;;;;;;;5093804;28;20204;-74
2023/06/05 00:35:43;;;;;;;6.33;5.20;;;;;;;;;;5096434;28;20757;-74
2023/06/05 00:38:10;;;;;;;7.57;4.43;;;;;;;;;;5093069;28;20628;-74
2023/06/05 00:40:37;;;;;;;6.27;4.83;;;;;;;;;;5079836;28;20212;-75
2023/06/05 00:43:07;;;;;;;7.07;4.80;;;;;;;;;;5088145;28;20239;-76
2023/06/05 00:45:35;;;;;;;6.03;5.23;;;;;;;;;;5072470;28;20265;-76
2023/06/05 00:48:03;;;;;;;5.30;4.80;;;;;;;;;;5091247;28;20660;-73
2023/06/05 00:50:32;;;;;;;6.67;4.90;;;;;;;;;;5093560;28;20247;-72
2023/06/05 00:53:01;;;;;;;6.07;4.67;;;;;;;;;;5075496;28;20197;-74
2023/06/05 00:55:29;;;;;;;9.23;5.13;;;;;;;;;;5092367;27;20710;-76
2023/06/05 00:57:56;;;;;;;5.87;4.77;;;;;;;;;;5080023;28;21057;-74
2023/06/05 01:00:25;;;;;;;6.03;5.23;;;;;;;;;;5088420;28;20299;-76
2023/06/05 01:02:53;;;;;;;5.80;5.07;;;;;;;;;;5069724;28;20216;-72
2023/06/05 01:05:20;;;;;;;5.77;4.97;;;;;;;;;;5088461;28;20269;-73
2023/06/05 01:07:48;;;;;;;5.63;4.90;;;;;;;;;;5088982;28;20248;-74
2023/06/05 01:10:15;;;;;;;7.70;5.60;;;;;;;;;;5075772;28;21948;-74
2023/06/05 01:12:46;;;;;;;10.07;8.03;;;;;;;;;;5095411;28;20203;-72
2023/06/05 01:15:28;;;;;;;5.73;5.17;;;;;;;;;;5093713;28;20616;-74
2023/06/05 01:18:01;;;;;;;8.40;4.87;;;;;;;;;;5079290;28;20658;-73
2023/06/05 01:20:39;;;;;;;6.10;5.40;;;;;;;;;;5095974;28;20291;-73
2023/06/05 01:23:07;;;;;;;6.77;5.67;;;;;;;;;;5095080;28;20245;-73
2023/06/05 01:25:36;;;;;;;6.93;5.77;;;;;;;;;;5072153;28;20269;-73
2023/06/05 01:28:03;;;;;;;9.20;6.20;;;;;;;;;;5095701;28;20212;-72
2023/06/05 01:30:31;;;;;;;9.03;6.50;;;;;;;;;;5075318;28;20254;-73
2023/06/05 01:33:02;;;;;;;6.43;5.73;;;;;;;;;;5076625;28;20196;-73
2023/06/05 01:35:32;;;;;;;9.27;5.50;;;;;;;;;;5097556;28;20216;-74
2023/06/05 01:38:02;;;;;;;7.40;5.40;;;;;;;;;;5100586;28;20592;-74
2023/06/05 01:40:31;;;;;;;8.10;5.60;;;;;;;;;;5096205;28;20621;-73
2023/06/05 01:43:00;;;;;;;7.93;5.90;;;;;;;;;;5093241;28;20196;-73
2023/06/05 01:45:27;;;;;;;7.13;5.77;;;;;;;;;;5090708;28;20278;-73
2023/06/05 01:47:56;;;;;;;9.07;5.17;;;;;;;;;;5099870;28;20229;-74
2023/06/05 01:50:24;;;;;;;7.40;5.47;;;;;;;;;;5090369;28;20204;-72
2023/06/05 01:52:52;;;;;;;6.17;5.50;;;;;;;;;;5097412;28;20248;-72
2023/06/05 01:55:23;;;;;;;7.17;6.13;;;;;;;;;;5085881;28;20232;-71
2023/06/05 01:57:51;;;;;;;6.47;5.30;;;;;;;;;;5090925;28;20564;-73
2023/06/05 02:00:20;;;;;;;6.80;5.50;;;;;;;;;;5096605;28;20205;-70
2023/06/05 02:02:48;;;;;;;7.87;5.50;;;;;;;;;;5098184;28;20192;-73
2023/06/05 02:05:24;;;;;;;6.43;5.07;;;;;;;;;;5099104;28;20224;-73
2023/06/05 02:07:55;;;;;;;7.27;5.73;;;;;;;;;;5098022;28;20196;-75
2023/06/05 02:10:24;;;;;;;6.30;5.00;;;;;;;;;;5102224;28;20230;-74
2023/06/05 02:12:51;;;;;;;7.90;5.43;;;;;;;;;;5095209;28;20198;-74
2023/06/05 02:15:19;;;;;;;9.07;7.13;;;;;;;;;;5094938;28;20256;-71
2023/06/05 02:17:50;;;;;;;12.27;8.00;;;;;;;;;;5098653;28;20196;-74
2023/06/05 02:20:18;;;;;;;9.00;6.20;;;;;;;;;;5081544;28;20265;-74
2023/06/05 02:22:49;;;;;;;9.80;5.87;;;;;;;;;;5097120;28;20212;-73
2023/06/05 02:25:17;;;;;;;6.87;5.13;;;;;;;;;;5074134;28;20272;-73
2023/06/05 02:27:44;;;;;;;6.30;4.93;;;;;;;;;;5096323;28;20662;-74
2023/06/05 02:30:12;;;;;;;6.43;4.90;;;;;;;;;;5094336;28;20204;-73
2023/06/05 02:32:46;;;;;;;6.33;4.90;;;;;;;;;;5089404;28;20230;-73
2023/06/05 02:35:14;;;;;;;5.70;5.00;;;;;;;;;;5092820;28;20637;-73
2023/06/05 02:37:43;;;;;;;5.63;4.83;;;;;;;;;;5080366;28;20669;-73
2023/06/05 02:40:14;;;;;;;5.27;4.43;;;;;;;;;;5096746;28;20208;-74
2023/06/05 02:42:41;;;;;;;5.43;4.90;;;;;;;;;;5091399;28;20254;-74
2023/06/05 02:45:09;;;;;;;5.40;4.90;;;;;;;;;;5094543;28;20223;-74
2023/06/05 02:47:36;;;;;;;6.20;4.67;;;;;;;;;;5078299;28;20227;-74
2023/06/05 02:50:04;;;;;;;5.17;4.67;;;;;;;;;;5084367;28;20268;-72
2023/06/05 02:52:35;;;;;;;5.87;4.57;;;;;;;;;;5095526;28;20224;-72
2023/06/05 02:55:04;;;;;;;6.83;4.33;;;;;;;;;;5091540;28;20231;-73
2023/06/05 02:57:35;;;;;;;6.90;5.00;;;;;;;;;;5097297;28;20594;-72
2023/06/05 03:00:07;;;;;;;5.70;4.87;;;;;;;;;;5093749;28;20253;-72
2023/06/05 03:02:36;;;;;;;6.27;5.30;;;;;;;;;;5080657;28;20212;-74
2023/06/05 03:05:04;;;;;;;7.33;5.47;;;;;;;;;;5093051;28;20235;-73
2023/06/05 03:07:33;;;;;;;8.00;5.57;;;;;;;;;;5089006;28;20215;-74
2023/06/05 03:10:01;;;;;;;6.17;5.40;;;;;;;;;;5095056;28;20232;-73
2023/06/05 03:12:29;;;;;;;8.07;5.80;;;;;;;;;;5095603;28;20231;-71
2023/06/05 03:14:56;;;;;;;5.27;4.70;;;;;;;;;;5097261;28;20212;-73
2023/06/05 03:17:24;;;;;;;9.57;6.33;;;;;;;;;;5091478;28;20214;-72
2023/06/05 03:19:51;;;;;;;8.77;6.30;;;;;;;;;;5090341;28;20578;-72
2023/06/05 03:22:18;;;;;;;8.40;6.00;;;;;;;;;;5097813;28;20605;-74
2023/06/05 03:24:46;;;;;;;10.27;7.13;;;;;;;;;;5088438;28;20467;-73
2023/06/05 03:27:13;;;;;;;10.83;6.87;;;;;;;;;;5092500;28;20227;-72
2023/06/05 03:29:41;;;;;;;14.30;8.83;;;;;;;;;;5089845;28;20258;-73
2023/06/05 03:32:08;;;;;;;9.73;7.30;;;;;;;;;;5101688;28;20245;-73
2023/06/05 03:34:36;;;;;;;8.10;5.60;;;;;;;;;;5100664;28;20758;-72
2023/06/05 03:37:03;;;;;;;6.63;5.57;;;;;;;;;;5081914;28;20196;-74
2023/06/05 03:39:31;;;;;;;6.30;5.10;;;;;;;;;;5094529;28;20265;-73
2023/06/05 03:41:58;;;;;;;6.33;5.53;;;;;;;;;;5099119;28;20910;-72
2023/06/05 03:44:25;;;;;;;6.77;5.50;;;;;;;;;;5080408;28;20227;-73
2023/06/05 03:46:53;;;;;;;5.87;5.13;;;;;;;;;;5103023;28;20273;-71
2023/06/05 03:49:22;;;;;;;5.97;5.37;;;;;;;;;;5096009;28;20771;-71
2023/06/05 03:51:49;;;;;;;10.80;5.30;;;;;;;;;;5080738;28;22208;-72
2023/06/05 03:54:16;;;;;;;6.17;5.50;;;;;;;;;;5097717;28;20220;-70
2023/06/05 03:56:49;;;;;;;6.13;5.53;;;;;;;;;;5091194;28;20581;-72
2023/06/05 03:59:21;;;;;;;8.27;5.43;;;;;;;;;;5096528;28;20197;-69
2023/06/05 04:01:48;;;;;;;7.03;4.90;;;;;;;;;;5081138;28;20201;-74
2023/06/05 04:04:16;;;;;;;5.53;4.97;;;;;;;;;;5076054;28;20300;-73
2023/06/05 04:06:43;;;;;;;6.17;5.27;;;;;;;;;;5091389;28;20639;-73
2023/06/05 04:09:11;;;;;;;6.97;5.60;;;;;;;;;;5100292;28;20665;-73
2023/06/05 04:11:43;;;;;;;7.93;5.73;;;;;;;;;;5096610;28;20238;-73
2023/06/05 04:14:11;;;;;;;11.13;6.00;;;;;;;;;;5097282;28;20306;-73
2023/06/05 04:16:38;;;;;;;6.53;5.93;;;;;;;;;;5093575;28;20197;-73
2023/06/05 04:19:07;;;;;;;6.30;5.70;;;;;;;;;;5098288;28;20375;-74
2023/06/05 04:21:36;;;;;;;6.60;5.43;;;;;;;;;;5090928;28;20236;-74
2023/06/05 04:24:06;;;;;;;8.40;5.60;;;;;;;;;;5074130;28;20246;-73
2023/06/05 04:26:35;;;;;;;6.27;5.03;;;;;;;;;;5099780;28;20293;-73
2023/06/05 04:29:02;;;;;;;6.23;5.63;;;;;;;;;;5098004;28;20446;-73
2023/06/05 04:31:30;;;;;;;7.13;5.80;;;;;;;;;;5073194;28;20228;-72
2023/06/05 04:33:58;;;;;;;7.37;5.53;;;;;;;;;;5080849;28;20428;-71
2023/06/05 04:36:28;;;;;;;6.27;5.63;;;;;;;;;;5097239;28;20204;-72
2023/06/05 04:38:56;;;;;;;8.23;5.67;;;;;;;;;;5099938;28;20643;-74
2023/06/05 04:41:23;;;;;;;7.60;5.40;;;;;;;;;;5071961;28;20201;-71
2023/06/05 04:43:50;;;;;;;6.13;5.53;;;;;;;;;;5075696;28;20228;-72
2023/06/05 04:46:18;;;;;;;6.53;5.60;;;;;;;;;;5077301;28;20208;-72
2023/06/05 04:48:45;;;;;;;7.27;5.20;;;;;;;;;;5098753;28;20565;-73
2023/06/05 04:51:13;;;;;;;5.37;4.83;;;;;;;;;;5097406;28;20254;-71
2023/06/05 04:53:41;;;;;;;7.57;5.47;;;;;;;;;;5100580;28;20703;-73
2023/06/05 04:56:09;;;;;;;7.03;5.40;;;;;;;;;;5081833;28;20209;-72
2023/06/05 04:58:37;;;;;;;7.00;5.87;;;;;;;;;;5097066;28;20196;-73
2023/06/05 05:01:05;;;;;;;6.13;5.00;;;;;;;;;;5101940;28;20650;-75
2023/06/05 05:03:32;;;;;;;5.97;5.13;;;;;;;;;;5104076;28;20291;-72
2023/06/05 05:06:00;;;;;;;5.73;4.70;;;;;;;;;;5102894;28;20197;-72
2023/06/05 05:08:27;;;;;;;6.37;5.00;;;;;;;;;;5102292;28;20220;-71
2023/06/05 05:10:55;;;;;;;6.97;5.23;;;;;;;;;;5100142;28;20228;-72
2023/06/05 05:13:22;;;;;;;7.77;5.53;;;;;;;;;;5101710;28;20238;-73
2023/06/05 05:15:52;;;;;;;7.00;4.83;;;;;;;;;;5099286;28;20211;-73
2023/06/05 05:18:20;;;;;;;4.80;4.30;;;;;;;;;;5103917;28;20196;-72
2023/06/05 05:20:47;;;;;;;4.33;3.93;;;;;;;;;;5106572;28;20296;-74
2023/06/05 05:23:15;;;;;;;7.57;5.27;;;;;;;;;;5103710;27;20216;-71
2023/06/05 05:25:44;;;;;;;6.00;4.63;;;;;;;;;;5081893;28;20773;-71
2023/06/05 05:28:12;;;;;;;5.53;3.63;;;;;;;;;;5096314;28;20263;-73
2023/06/05 05:30:39;;;;;;;8.90;4.07;;;;;;;;;;5099697;27;20200;-72
2023/06/05 05:33:07;;;;;;;4.25;3.88;;;;;;;;;;5095057;28;20271;-71
2023/06/05 05:35:34;;;;;;;5.35;4.13;;;;;;;;;;5079809;28;20259;-74
2023/06/05 05:38:01;;;;;;;5.50;3.78;;;;;;;;;;5097967;28;20204;-73
2023/06/05 05:40:29;;;;;;;4.28;3.85;;;;;;;;;;5085351;28;20256;-72
2023/06/05 05:42:57;;;;;;;4.72;3.58;;;;;;;;;;5102740;28;20196;-72
2023/06/05 05:45:24;;;;;;;5.43;3.95;;;;;;;;;;5083835;28;20216;-73
2023/06/05 05:47:51;;;;;;;4.38;3.30;;;;;;;;;;5084791;28;20208;-73
2023/06/05 05:50:19;;;;;;;4.35;3.70;;;;;;;;;;5101417;28;20788;-74
2023/06/05 05:52:47;;;;;;;5.43;3.55;;;;;;;;;;5097932;28;20219;-73
2023/06/05 05:55:15;;;;;;;3.90;3.60;;;;;;;;;;5080413;28;20692;-74
2023/06/05 05:57:42;;;;;;;4.30;3.90;;;;;;;;;;5096692;28;20197;-73
2023/06/05 06:00:12;;;;;;;4.18;3.78;;;;;;;;;;5083648;28;20568;-73
2023/06/05 06:02:40;;;;;;;4.15;3.75;;;;;;;;;;5102433;28;20204;-73
2023/06/05 06:05:13;;;;;;;3.85;3.55;;;;;;;;;;5106554;28;20701;-74
2023/06/05 06:07:42;;;;;;;4.20;3.60;;;;;;;;;;5100303;28;20208;-73
2023/06/05 06:10:11;;;;;;;5.35;4.38;;;;;;;;;;5080963;28;20829;-73
2023/06/05 06:12:40;;;;;;;6.30;4.05;;;;;;;;;;5084373;28;20256;-73
2023/06/05 06:15:07;;;;;;;4.53;4.13;;;;;;;;;;5095456;28;20251;-72
2023/06/05 06:17:35;;;;;;;5.80;3.97;;;;;;;;;;5097528;28;20268;-72
2023/06/05 06:20:03;;;;;;;4.88;4.40;;;;;;;;;;5100735;28;20242;-73
2023/06/05 06:22:30;;;;;;;6.18;4.47;;;;;;;;;;5093530;28;20211;-73
2023/06/05 06:24:59;;;;;;;5.07;4.57;;;;;;;;;;5082075;28;20628;-73
2023/06/05 06:27:27;;;;;;;4.68;4.28;;;;;;;;;;5080118;28;20208;-74
2023/06/05 06:30:02;;;;;;;6.82;5.55;;;;;;;;;;5089416;28;20197;-73
2023/06/05 06:32:29;;;;;;;7.47;4.97;;;;;;;;;;5092897;28;20224;-71
2023/06/05 06:34:57;;;;;;;5.85;5.07;;;;;;;;;;5097508;28;20311;-72
2023/06/05 06:37:24;;;;;;;7.18;5.43;;;;;;;;;;5089653;28;20681;-73
2023/06/05 06:39:52;;;;;;;6.35;5.28;;;;;;;;;;5076274;28;20228;-72
2023/06/05 06:42:19;;;;;;;7.70;6.90;;;;;;;;;;5083667;28;20568;-73
2023/06/05 06:44:46;;;;;;;6.88;6.28;;;;;;;;;;5098893;28;20263;-74
2023/06/05 06:47:14;;;;;;;7.03;6.30;;;;;;;;;;5096319;28;20304;-73
2023/06/05 06:49:41;;;;;;;6.53;5.82;;;;;;;;;;5095604;28;20215;-74
2023/06/05 06:52:08;;;;;;;6.70;5.97;;;;;;;;;;5092801;28;20269;-73
2023/06/05 06:54:37;;;;;;;9.38;6.57;;;;;;;;;;5095681;27;20224;-74
2023/06/05 06:57:05;;;;;;;7.07;5.95;;;;;;;;;;5092811;28;20201;-73
2023/06/05 06:59:32;;;;;;;8.45;6.80;;;;;;;;;;5075913;28;20254;-74
2023/06/05 07:02:16;;;;;;;8.00;6.28;;;;;;;;;;5072602;28;20291;-75
2023/06/05 07:04:44;;;;;;;8.68;6.85;;;;;;;;;;5051351;28;20232;-74
2023/06/05 07:07:12;;;;;;;9.60;6.18;;;;;;;;;;5075413;28;20211;-74
2023/06/05 07:09:44;;;;;;;6.85;6.25;;;;;;;;;;5065070;27;20262;-74
2023/06/05 07:12:12;;;;;;;7.70;6.05;;;;;;;;;;5070111;28;20792;-74
2023/06/05 07:14:39;;;;;;;6.68;6.07;;;;;;;;;;5049995;28;20224;-74
2023/06/05 07:17:07;;;;;;;8.23;6.70;;;;;;;;;;5051398;28;20776;-74
2023/06/05 07:19:38;;;;;;;6.15;5.63;;;;;;;;;;5046572;28;20209;-74
2023/06/05 07:22:06;;;;;;;8.00;5.97;;;;;;;;;;5075225;28;20217;-74
2023/06/05 07:24:38;;;;;;;7.82;5.75;;;;;;;;;;5051561;28;20251;-74
2023/06/05 07:27:06;;;;;;;7.70;5.82;;;;;;;;;;5077191;28;20266;-74
2023/06/05 07:29:33;;;;;;;6.65;5.40;;;;;;;;;;5081370;28;20197;-74
2023/06/05 07:32:02;;;;;;;6.43;5.80;;;;;;;;;;5066860;28;20221;-73
2023/06/05 07:34:30;;;;;;;7.53;6.28;;;;;;;;;;5085010;28;20296;-75
2023/06/05 07:36:57;;;;;;;5.75;5.25;;;;;;;;;;5086375;28;20259;-76
2023/06/05 07:39:25;;;;;;;7.53;5.88;;;;;;;;;;5091692;28;20287;-75
2023/06/05 07:41:52;;;;;;;6.00;5.35;;;;;;;;;;5085844;28;20614;-73
2023/06/05 07:44:23;;;;;;;7.18;5.90;;;;;;;;;;5082154;28;20288;-74
2023/06/05 07:46:51;;;;;;;6.70;5.72;;;;;;;;;;5063353;28;20300;-74
2023/06/05 07:49:18;;;;;;;8.25;5.38;;;;;;;;;;5064657;28;20634;-76
2023/06/05 07:51:48;;;;;;;6.38;5.20;;;;;;;;;;5078527;28;20553;-75
2023/06/05 07:54:16;;;;;;;5.78;5.18;;;;;;;;;;5065853;28;20386;-75
2023/06/05 07:56:44;;;;;;;6.95;5.90;;;;;;;;;;5085887;28;20599;-75
2023/06/05 07:59:14;;;;;;;6.50;5.15;;;;;;;;;;5089833;28;20205;-74
2023/06/05 08:01:43;;;;;;;7.78;5.15;;;;;;;;;;5091525;28;20210;-75
2023/06/05 08:04:11;;;;;;;5.65;5.15;;;;;;;;;;5094525;28;20227;-75
2023/06/05 08:06:41;;;;;;;5.57;5.07;;;;;;;;;;5087692;28;20251;-74
2023/06/05 08:09:12;;;;;;;6.25;5.57;;;;;;;;;;5079388;28;20208;-74
2023/06/05 08:11:43;;;;;;;7.22;5.20;;;;;;;;;;5078021;28;20232;-74
2023/06/05 08:14:11;;;;;;;6.25;4.82;;;;;;;;;;5085701;28;20232;-74
2023/06/05 08:16:38;;;;;;;7.78;5.00;;;;;;;;;;5092247;28;20217;-73
2023/06/05 08:19:06;;;;;;;6.43;5.63;;;;;;;;;;5097206;28;20277;-74
2023/06/05 08:21:34;;;;;;;6.30;5.55;;;;;;;;;;5099721;28;20560;-74
2023/06/05 08:24:02;;;;;;;6.57;5.78;;;;;;;;;;5097572;28;20235;-73
2023/06/05 08:26:31;;;;;;;5.00;4.50;;;;;;;;;;5086296;28;20317;-76
2023/06/05 08:28:58;;;;;;;5.28;4.82;;;;;;;;;;5088725;28;20291;-76
2023/06/05 08:31:25;;;;;;;7.10;4.85;;;;;;;;;;5077587;28;20232;-75
2023/06/05 08:33:53;;;;;;;5.40;4.75;;;;;;;;;;5084925;28;20232;-75
2023/06/05 08:36:21;;;;;;;5.38;4.75;;;;;;;;;;5084182;28;20192;-75
2023/06/05 08:38:48;;;;;;;7.00;5.38;;;;;;;;;;5093274;28;20197;-77
2023/06/05 08:41:16;;;;;;;6.20;5.10;;;;;;;;;;5088683;28;20205;-76
2023/06/05 08:43:47;;;;;;;6.75;5.20;;;;;;;;;;5086844;28;20323;-75
2023/06/05 08:46:15;;;;;;;7.07;4.93;;;;;;;;;;5085319;28;20212;-75
2023/06/05 08:51:35;;;;;;;5.32;4.60;;;;;;;;;;5091216;28;20683;-74
2023/06/05 08:54:12;;;;;;;5.88;5.28;;;;;;;;;;5084611;28;20231;-74
2023/06/05 08:56:40;;;;;;;6.68;4.72;;;;;;;;;;5063212;28;20192;-75
2023/06/05 08:59:07;;;;;;;5.55;5.05;;;;;;;;;;5074060;28;20205;-77
2023/06/05 09:01:37;;;;;;;6.40;4.18;;;;;;;;;;5068933;28;20201;-74
2023/06/05 09:04:04;;;;;;;7.28;4.43;;;;;;;;;;5085095;28;20232;-75
2023/06/05 09:06:36;;;;;;;4.43;3.97;;;;;;;;;;5087512;28;20669;-77
2023/06/05 09:09:03;;;;;;;5.95;4.50;;;;;;;;;;5080509;28;20259;-75
2023/06/05 09:11:31;;;;;;;4.05;3.75;;;;;;;;;;5090760;28;20265;-76
2023/06/05 09:14:00;;;;;;;5.55;4.75;;;;;;;;;;5094218;28;20845;-76
2023/06/05 09:16:37;;;;;;;4.90;4.25;;;;;;;;;;5090786;28;20814;-76
2023/06/05 09:19:07;;;;;;;5.88;4.00;;;;;;;;;;5085746;28;20211;-74
2023/06/05 09:21:35;;;;;;;7.30;4.32;;;;;;;;;;5081273;28;20211;-76
2023/06/05 09:24:24;;;;;;;4.88;4.10;;;;;;;;;;5076117;28;20690;-75
2023/06/05 09:27:02;;;;;;;4.97;4.20;;;;;;;;;;5070406;28;20717;-76
2023/06/05 09:29:30;;;;;;;6.95;3.90;;;;;;;;;;5086330;28;20212;-75
2023/06/05 09:32:01;;;;;;;4.80;4.18;;;;;;;;;;5090144;28;20605;-75
2023/06/05 09:34:38;;;;;;;4.50;4.07;;;;;;;;;;5084151;28;20284;-77
2023/06/05 09:37:07;;;;;;;4.68;4.05;;;;;;;;;;5090002;28;20205;-74
2023/06/05 09:39:35;;;;;;;5.18;3.95;;;;;;;;;;5094023;28;20212;-74
2023/06/05 09:42:03;;;;;;;4.45;4.05;;;;;;;;;;5071677;28;20203;-75
2023/06/05 09:44:31;;;;;;;4.70;4.28;;;;;;;;;;5065158;28;20216;-74
2023/06/05 09:46:59;;;;;;;5.10;4.60;;;;;;;;;;5078495;28;20300;-75
2023/06/05 09:49:27;;;;;;;6.10;4.50;;;;;;;;;;5081081;28;20223;-75
2023/06/05 09:51:55;;;;;;;4.32;3.92;;;;;;;;;;5074346;28;20197;-74
2023/06/05 09:54:25;;;;;;;8.00;4.10;;;;;;;;;;5067323;28;20720;-74
2023/06/05 09:57:01;;;;;;;4.45;4.07;;;;;;;;;;5066964;28;20200;-73
2023/06/05 09:59:29;;;;;;;5.25;3.97;;;;;;;;;;5072206;28;20199;-75
2023/06/05 10:01:59;;;;;;;4.43;4.03;;;;;;;;;;5037051;28;20356;-73
2023/06/05 10:04:27;;;;;;;4.55;4.00;;;;;;;;;;5051215;28;20317;-73
2023/06/05 10:07:04;;;;;;;5.30;3.95;;;;;;;;;;5069467;28;23327;-75
2023/06/05 10:09:31;;;;;;;4.57;4.13;;;;;;;;;;5061387;28;20208;-72
2023/06/05 10:11:59;;;;;;;5.35;4.38;;;;;;;;;;5073692;27;20207;-72
2023/06/05 10:14:27;;;;;;;4.10;3.80;;;;;;;;;;5071971;28;20251;-73
2023/06/05 10:16:56;;;;;;;5.90;4.22;;;;;;;;;;5074412;28;20204;-74
2023/06/05 10:19:24;;;;;;;4.90;4.20;;;;;;;;;;5058547;28;20204;-75
2023/06/05 10:21:52;;;;;;;4.70;4.13;;;;;;;;;;5070261;28;20197;-75
2023/06/05 10:24:21;;;;;;;5.72;4.47;;;;;;;;;;5053478;28;20224;-75
2023/06/05 10:27:04;;;;;;;4.63;4.22;;;;;;;;;;5072070;28;20223;-75
2023/06/05 10:29:31;;;;;;;5.10;4.25;;;;;;;;;;5082625;28;20658;-74
2023/06/05 10:32:04;;;;;;;7.05;4.10;;;;;;;;;;5088618;28;20693;-75
2023/06/05 10:34:37;;;;;;;5.07;4.30;;;;;;;;;;5062922;28;20638;-73
2023/06/05 10:37:26;;;;;;;4.32;3.80;;;;;;;;;;5081516;27;20205;-74
2023/06/05 10:39:54;;;;;;;4.55;4.15;;;;;;;;;;5087565;28;20222;-74
2023/06/05 10:42:25;;;;;;;5.13;4.30;;;;;;;;;;5084147;28;20223;-74
2023/06/05 10:44:52;;;;;;;4.53;4.07;;;;;;;;;;5087734;28;20224;-75
2023/06/05 10:47:38;;;;;;;5.10;4.00;;;;;;;;;;5102890;28;20249;-75
2023/06/05 10:50:21;;;;;;;5.15;3.95;;;;;;;;;;5098233;28;20735;-74
2023/06/05 10:52:53;;;;;;;5.85;3.88;;;;;;;;;;5078734;28;20208;-74
2023/06/05 10:55:23;;;;;;;4.60;4.00;;;;;;;;;;5080060;28;20227;-73
2023/06/05 10:58:03;;;;;;;4.85;4.45;;;;;;;;;;5090513;28;20197;-74
2023/06/05 11:00:32;;;;;;;4.63;4.22;;;;;;;;;;5086412;28;20211;-75
2023/06/05 11:03:02;;;;;;;4.75;3.97;;;;;;;;;;5088441;28;20253;-77
2023/06/05 11:05:32;;;;;;;4.60;4.20;;;;;;;;;;5086881;28;20220;-75
2023/06/05 11:08:18;;;;;;;5.93;4.57;;;;;;;;;;5088564;28;20207;-73
2023/06/05 11:11:05;;;;;;;6.35;4.60;;;;;;;;;;5089017;28;20283;-75
2023/06/05 11:13:50;;;;;;;5.18;4.22;;;;;;;;;;5080768;28;20220;-74
2023/06/05 11:16:31;;;;;;;21.00;8.52;;;;;;;;;;5080142;28;20254;-73
2023/06/05 11:19:17;;;;;;;4.88;4.40;;;;;;;;;;5062772;28;20228;-75
2023/06/05 11:22:03;;;;;;;5.93;4.28;;;;;;;;;;5094575;28;20292;-73
2023/06/05 11:24:31;;;;;;;6.13;3.97;;;;;;;;;;5073785;28;20220;-74
2023/06/05 11:27:02;;;;;;;4.38;3.92;;;;;;;;;;5087817;28;20208;-74
2023/06/05 11:29:29;;;;;;;5.63;4.22;;;;;;;;;;5087397;28;20200;-73
2023/06/05 11:31:57;;;;;;;6.22;4.25;;;;;;;;;;5082904;28;20212;-73
2023/06/05 11:34:25;;;;;;;4.25;3.90;;;;;;;;;;5084557;28;20281;-74
2023/06/05 11:36:53;;;;;;;4.40;3.90;;;;;;;;;;5082799;28;20204;-74
2023/06/05 11:39:21;;;;;;;4.20;3.80;;;;;;;;;;5096955;28;20231;-74
2023/06/05 11:41:50;;;;;;;6.25;3.92;;;;;;;;;;5088087;28;20715;-73
2023/06/05 11:44:31;;;;;;;4.65;4.15;;;;;;;;;;5094477;28;20242;-76
2023/06/05 11:46:58;;;;;;;5.93;4.53;;;;;;;;;;5074349;28;20208;-74
2023/06/05 11:49:27;;;;;;;4.80;4.18;;;;;;;;;;5065226;28;20600;-74
2023/06/05 11:51:54;;;;;;;7.05;5.43;;;;;;;;;;5073308;28;20208;-73
2023/06/05 11:54:29;;;;;;;4.93;4.20;;;;;;;;;;5084671;28;20227;-75
2023/06/05 11:57:12;;;;;;;7.05;4.43;;;;;;;;;;5069913;28;20234;-75
2023/06/05 11:59:39;;;;;;;5.20;3.88;;;;;;;;;;5090120;28;20196;-75
2023/06/05 12:02:06;;;;;;;4.47;4.05;;;;;;;;;;5079531;28;20203;-76
2023/06/05 12:04:34;;;;;;;5.95;4.20;;;;;;;;;;5087579;28;20289;-76
2023/06/05 12:07:02;;;;;;;6.45;4.80;;;;;;;;;;5095277;28;20710;-75
2023/06/05 12:09:30;;;;;;;4.70;4.30;;;;;;;;;;5059248;28;20209;-75
2023/06/05 12:12:10;;;;;;;4.82;4.15;;;;;;;;;;5084626;28;20200;-75
2023/06/05 12:14:37;;;;;;;6.78;4.15;;;;;;;;;;5101342;28;20741;-75
2023/06/05 12:17:11;;;;;;;5.18;4.15;;;;;;;;;;5102177;28;20269;-75
2023/06/05 12:19:39;;;;;;;6.47;4.13;;;;;;;;;;5088461;28;20571;-74
2023/06/05 12:22:07;;;;;;;4.53;4.13;;;;;;;;;;5092623;28;20204;-74
2023/06/05 12:24:34;;;;;;;4.32;4.00;;;;;;;;;;5079569;28;20756;-74
2023/06/05 12:27:04;;;;;;;4.40;4.00;;;;;;;;;;5090707;28;20288;-74
2023/06/05 12:29:33;;;;;;;5.22;4.10;;;;;;;;;;5098792;28;20716;-74
2023/06/05 12:32:01;;;;;;;5.43;4.03;;;;;;;;;;5103118;28;20646;-75
2023/06/05 12:34:47;;;;;;;4.55;4.15;;;;;;;;;;5102699;28;20225;-75
2023/06/05 12:37:31;;;;;;;5.20;3.90;;;;;;;;;;5075322;28;20226;-75
2023/06/05 12:40:00;;;;;;;5.93;4.00;;;;;;;;;;5102723;28;20238;-75
2023/06/05 12:42:28;;;;;;;5.70;3.85;;;;;;;;;;5087359;28;20200;-75
2023/06/05 12:44:55;;;;;;;4.20;3.80;;;;;;;;;;5097654;28;20240;-74
2023/06/05 12:47:22;;;;;;;4.97;4.15;;;;;;;;;;5089593;28;20216;-74
2023/06/05 12:49:50;;;;;;;5.68;3.88;;;;;;;;;;5091004;28;20610;-74
2023/06/05 12:52:18;;;;;;;4.55;3.70;;;;;;;;;;5096875;28;20212;-75
2023/06/05 12:54:45;;;;;;;5.45;3.80;;;;;;;;;;5094501;28;20225;-74
2023/06/05 12:57:13;;;;;;;5.10;4.18;;;;;;;;;;5102892;28;20650;-74
2023/06/05 12:59:40;;;;;;;5.30;4.07;;;;;;;;;;5084798;28;20196;-74
2023/06/05 13:02:07;;;;;;;5.20;3.85;;;;;;;;;;5098508;28;20712;-74
2023/06/05 13:04:35;;;;;;;5.60;4.18;;;;;;;;;;5098071;28;20237;-75
2023/06/05 13:07:03;;;;;;;4.60;4.10;;;;;;;;;;5104131;28;20641;-75
2023/06/05 13:09:31;;;;;;;8.57;4.03;;;;;;;;;;5103851;28;20366;-74
2023/06/05 13:11:59;;;;;;;6.70;4.03;;;;;;;;;;5106999;28;20207;-75
2023/06/05 13:14:27;;;;;;;5.05;3.85;;;;;;;;;;5108886;28;20273;-75
2023/06/05 13:16:54;;;;;;;7.65;3.78;;;;;;;;;;5097005;28;20193;-74
2023/06/05 13:19:22;;;;;;;5.00;3.97;;;;;;;;;;5100105;28;20212;-75
2023/06/05 13:21:49;;;;;;;6.53;3.88;;;;;;;;;;5080515;28;20221;-76
2023/06/05 13:24:16;;;;;;;4.07;3.67;;;;;;;;;;5079430;28;20315;-73
2023/06/05 13:26:44;;;;;;;4.43;3.55;;;;;;;;;;5087816;28;20225;-75
2023/06/05 13:29:12;;;;;;;4.15;3.75;;;;;;;;;;5104215;28;20209;-75
2023/06/05 13:31:40;;;;;;;5.00;4.18;;;;;;;;;;5077509;28;20204;-74
2023/06/05 13:34:08;;;;;;;5.13;3.65;;;;;;;;;;5089111;28;20235;-75
2023/06/05 13:36:35;;;;;;;4.50;3.70;;;;;;;;;;5105151;28;20204;-75
2023/06/05 13:39:02;;;;;;;4.63;3.80;;;;;;;;;;5106605;28;20196;-74
2023/06/05 13:41:30;;;;;;;4.75;4.03;;;;;;;;;;5101635;28;20573;-75
2023/06/05 13:43:58;;;;;;;4.40;3.92;;;;;;;;;;5091713;28;20216;-75
2023/06/05 13:46:25;;;;;;;4.88;4.00;;;;;;;;;;5102817;28;20229;-75
2023/06/05 13:48:54;;;;;;;4.10;3.75;;;;;;;;;;5095895;28;20917;-75
2023/06/05 13:51:21;;;;;;;4.18;3.78;;;;;;;;;;5101738;28;20208;-74
2023/06/05 13:53:49;;;;;;;5.25;3.92;;;;;;;;;;5090039;28;20260;-73
2023/06/05 13:56:16;;;;;;;4.82;3.58;;;;;;;;;;5096072;28;20208;-74
2023/06/05 13:58:44;;;;;;;5.50;3.50;;;;;;;;;;5096245;28;20670;-75
2023/06/05 14:01:11;;;;;;;4.15;3.65;;;;;;;;;;5092434;28;20249;-73
2023/06/05 14:03:39;;;;;;;7.05;3.80;;;;;;;;;;5097943;28;20203;-75
2023/06/05 14:06:06;;;;;;;5.28;3.72;;;;;;;;;;5095909;28;20223;-74
2023/06/05 14:08:34;;;;;;;6.45;3.70;;;;;;;;;;5093527;28;20542;-75
2023/06/05 14:11:02;;;;;;;4.70;3.65;;;;;;;;;;5091573;28;20203;-73
2023/06/05 14:13:29;;;;;;;4.28;3.72;;;;;;;;;;5090353;28;20298;-73
2023/06/05 14:15:56;;;;;;;5.45;3.53;;;;;;;;;;5098068;28;20206;-74
2023/06/05 14:18:25;;;;;;;4.32;3.80;;;;;;;;;;5074271;28;20212;-74
2023/06/05 14:20:53;;;;;;;5.97;4.18;;;;;;;;;;5087427;28;20222;-74
2023/06/05 14:23:22;;;;;;;5.32;4.07;;;;;;;;;;5072534;28;20208;-74
2023/06/05 14:25:50;;;;;;;4.10;3.63;;;;;;;;;;5076201;28;20284;-74
2023/06/05 14:28:19;;;;;;;5.43;3.75;;;;;;;;;;5091542;28;20208;-74
2023/06/05 14:30:46;;;;;;;5.78;4.18;;;;;;;;;;5091986;28;20666;-75
2023/06/05 14:33:17;;;;;;;5.55;5.03;;;;;;;;;;5095873;28;20211;-73
2023/06/05 14:35:44;;;;;;;5.25;3.75;;;;;;;;;;5092940;28;20243;-73
2023/06/05 14:38:12;;;;;;;5.15;3.78;;;;;;;;;;5096213;28;20231;-74
2023/06/05 14:40:40;;;;;;;4.03;3.72;;;;;;;;;;5092727;28;20568;-74
2023/06/05 14:43:08;;;;;;;4.03;3.45;;;;;;;;;;5093419;28;20269;-74
2023/06/05 14:45:35;;;;;;;4.32;3.92;;;;;;;;;;5101858;28;20223;-74
2023/06/05 14:48:11;;;;;;;8.18;3.83;;;;;;;;;;5096791;28;20210;-74
2023/06/05 14:50:39;;;;;;;6.95;4.00;;;;;;;;;;5102262;28;20646;-74
2023/06/05 14:53:09;;;;;;;4.75;4.03;;;;;;;;;;5100647;28;20223;-74
2023/06/05 14:55:38;;;;;;;4.60;3.70;;;;;;;;;;5095783;28;20249;-75
2023/06/05 14:58:07;;;;;;;4.05;3.75;;;;;;;;;;5104635;28;20681;-75